»·PEaware :: PH-TIM KTRM-KTNP

PH-TIM :: KTRM-KTNP

FLIGHT INFORMATION

Flight Status: Arrived
Operator: Privately registered:
Netherlands
More flights under this callsign
Pilot: Tim P. (6337)
Aircraft: CESSNA 172 SKYHAWK
(C172)
More flights by this aircraft type
Origin: KTRM Desert Resorts Regl
United States
Destination: KTNP Twentynine Palms
United States
More flights between these airports :: More routes between these airports
Route: TRM CONES CLOWD TNP
File this flight plan on PilotEdge
Remarks: MECCA1.TNP departure
Altitude:
(Current/Filed)
7,000ft
Speed:
(Current/Filed)
105kts
Departed: 30-Aug-18 10:25 AM
Arrived: 30-Aug-18 11:18 AM
Distance/Time
Traveled:
32nm/0:53
Distance/Time
To Go:
Arrived

Flight Plot

Page will automatically refresh every two minutes.

Flight plan parsing failed; only flown route is shown


Map Options




Map Legend


Flown Route
Filed Route
Departure Airport
Arrival Airport
Navaid (VOR, NDB)
Fix

Horizontal Profiles

Position Reports

Time Latitude Longitude Heading Altitude Ground
Speed
30-Aug-18 10:00 33.634610 -116.165005 88 -109ft 0kts
30-Aug-18 10:01 33.634610 -116.165005 88 -109ft 0kts
30-Aug-18 10:02 33.634610 -116.165005 88 -109ft 0kts
30-Aug-18 10:03 33.634610 -116.165005 88 -109ft 0kts
30-Aug-18 10:04 33.634610 -116.165005 88 -109ft 0kts
30-Aug-18 10:05 33.634610 -116.165005 88 -109ft 0kts
30-Aug-18 10:06 33.634610 -116.165005 88 -109ft 0kts
30-Aug-18 10:07 33.634610 -116.165005 88 -109ft 0kts
30-Aug-18 10:08 33.634610 -116.165005 88 -109ft 0kts
30-Aug-18 10:09 33.634610 -116.165004 87 -109ft 0kts
30-Aug-18 10:10 33.634610 -116.165004 87 -109ft 0kts
30-Aug-18 10:11 33.634610 -116.165004 87 -109ft 0kts
30-Aug-18 10:12 33.634610 -116.165004 87 -109ft 0kts
30-Aug-18 10:13 33.634610 -116.165004 87 -109ft 0kts
30-Aug-18 10:14 33.634610 -116.165004 87 -109ft 0kts
30-Aug-18 10:15 33.634610 -116.165004 87 -109ft 0kts
30-Aug-18 10:16 33.634610 -116.165004 87 -109ft 0kts
30-Aug-18 10:17 33.634155 -116.164729 114 -109ft 5kts
30-Aug-18 10:18 33.634137 -116.161239 89 -110ft 11kts
30-Aug-18 10:19 33.633582 -116.157745 179 -112ft 13kts
30-Aug-18 10:20 33.628925 -116.157747 178 -117ft 17kts
30-Aug-18 10:21 33.624847 -116.157742 178 -120ft 18kts
30-Aug-18 10:22 33.618896 -116.157747 180 -125ft 17kts
30-Aug-18 10:23 33.616143 -116.158045 113 -126ft 0kts
30-Aug-18 10:24 33.616143 -116.158045 114 -126ft 0kts
30-Aug-18 10:26 33.615882 -116.157348 89 -126ft 12kts
30-Aug-18 10:26 33.624878 -116.156417 3 25ft 75kts
30-Aug-18 10:28 33.649458 -116.155213 42 867ft 77kts
30-Aug-18 10:28 33.637083 -116.144136 176 1412ft 91kts
30-Aug-18 10:29 33.611448 -116.145163 179 2022ft 94kts
30-Aug-18 10:30 33.587795 -116.135403 144 2631ft 87kts
30-Aug-18 10:31 33.566615 -116.119448 144 3137ft 92kts
30-Aug-18 10:32 33.545577 -116.103468 142 3632ft 91kts
30-Aug-18 10:33 33.528191 -116.085753 61 4097ft 81kts
30-Aug-18 10:34 33.548004 -116.092965 329 4526ft 87kts
30-Aug-18 10:35 33.568123 -116.109361 328 4957ft 87kts
30-Aug-18 10:36 33.587268 -116.127063 330 5391ft 84kts
30-Aug-18 10:37 33.607470 -116.142851 329 5790ft 86kts
30-Aug-18 10:38 33.628863 -116.160411 332 6085ft 92kts
30-Aug-18 10:39 33.646053 -116.152357 61 6470ft 85kts
30-Aug-18 10:40 33.661990 -116.133119 35 6861ft 79kts
30-Aug-18 10:41 33.681840 -116.117152 33 7023ft 96kts
30-Aug-18 10:42 33.705373 -116.098201 34 7032ft 103kts
30-Aug-18 10:43 33.729280 -116.078997 33 7034ft 103kts
30-Aug-18 10:44 33.753182 -116.059797 33 7028ft 102kts
30-Aug-18 10:45 33.776864 -116.040768 33 7028ft 102kts
30-Aug-18 10:46 33.800602 -116.021678 34 7026ft 102kts
30-Aug-18 10:47 33.824231 -116.002659 33 7021ft 102kts
30-Aug-18 10:48 33.847860 -115.983614 34 7017ft 102kts
30-Aug-18 10:49 33.871576 -115.964515 33 7014ft 102kts
30-Aug-18 10:50 33.895174 -115.945488 33 7010ft 102kts
30-Aug-18 10:51 33.918566 -115.926588 34 7006ft 102kts
30-Aug-18 10:52 33.942237 -115.907477 33 6999ft 103kts
30-Aug-18 10:53 33.965947 -115.888319 33 6999ft 102kts
30-Aug-18 10:54 33.989623 -115.869180 34 6991ft 102kts
30-Aug-18 10:55 34.013275 -115.850030 32 6985ft 102kts
30-Aug-18 10:56 34.036796 -115.830978 33 6979ft 102kts
30-Aug-18 10:57 34.060376 -115.811875 33 6969ft 102kts
30-Aug-18 10:58 34.083977 -115.792737 32 6963ft 102kts
30-Aug-18 10:59 34.107611 -115.773560 33 6960ft 102kts
30-Aug-18 11:00 34.113344 -115.744510 102 6962ft 106kts
30-Aug-18 11:01 34.108830 -115.709382 90 6965ft 105kts
30-Aug-18 11:02 34.106830 -115.673850 90 6964ft 106kts
30-Aug-18 11:03 34.104791 -115.637679 90 6819ft 114kts
30-Aug-18 11:04 34.099092 -115.598468 112 6430ft 125kts
30-Aug-18 11:05 34.084544 -115.560089 109 6039ft 124kts
30-Aug-18 11:06 34.072480 -115.524846 109 6025ft 108kts
30-Aug-18 11:07 34.087519 -115.506138 336 6012ft 105kts
30-Aug-18 11:08 34.095918 -115.540505 279 6014ft 113kts
30-Aug-18 11:09 34.099676 -115.578120 282 5999ft 114kts
30-Aug-18 11:10 34.103862 -115.615889 276 6025ft 113kts
30-Aug-18 11:11 34.107117 -115.656101 281 5517ft 123kts
30-Aug-18 11:12 34.113418 -115.696754 283 5070ft 124kts
30-Aug-18 11:13 34.116609 -115.737317 279 4833ft 113kts
30-Aug-18 11:14 34.120715 -115.777587 278 4345ft 125kts
30-Aug-18 11:15 34.124327 -115.820500 276 3790ft 122kts
30-Aug-18 11:16 34.128410 -115.862080 277 3148ft 121kts
30-Aug-18 11:17 34.132951 -115.898554 289 2682ft 91kts
30-Aug-18 11:18 34.134482 -115.926899 272 1920ft 69kts
30-Aug-18 11:19 34.134563 -115.941555 356 1815ft 6kts
30-Aug-18 11:20 34.136064 -115.942268 267 1816ft 4kts
30-Aug-18 11:21 34.135868 -115.942359 179 1817ft 0kts

Navigation Log

Ident Type
Flight plan parsing failed, navigation log unavailable